Latest Weather Observations for Proserpine

IDQ60801

Issued at 1:22 pm EST Sunday 26 January 2020 (issued every 10 minutes, with the page automatically refreshed every 10 minutes)

About weather observations | Map of weather stations | Latest weather observations for QLD | Other Formats
Station Details ID: 033247 Name: PROSERPINE AIRPORT Lat: -20.49 Lon: 148.56 Height: 19.7 m
Data from the previous 72 hours. | See also: Recent months at Proserpine
Date/Time
EST
Temp
°C
App
Temp
°C
Dew
Point
°C
Rel
Hum
%
Delta-T
°C
Wind Press
QNH
hPa
Press
MSL
hPa
Rain since
9am
mm
Dir  Spd
km/h
Gust
km/h
Spd
kts
Gust
kts
26/01:17pm 26.0 28.6 23.3 85 1.8 ENE 15 20 8 11 1009.2 1009.1 4.2
26/01:00pm 25.8 28.7 22.5 82 2.2 E 11 17 6 9 1009.5 1009.4 4.2
26/12:45pm 25.8 29.8 23.8 89 1.4 E 9 15 5 8 1009.7 1009.6 4.2
26/12:40pm 25.8 29.9 24.0 90 1.2 E 9 15 5 8 1009.8 1009.7 4.2
26/12:30pm 25.7 29.6 24.3 92 1.0 E 11 17 6 9 1010.0 1009.9 4.2
26/12:19pm 25.7 29.3 24.3 92 1.0 ENE 13 20 7 11 1010.3 1010.2 4.2
26/12:00pm 25.0 28.3 23.8 93 0.8 NE 13 20 7 11 1010.7 1010.6 4.0
26/11:37am 24.9 28.1 23.7 93 0.8 ENE 13 17 7 9 1011.0 1010.9 2.0
26/11:30am 25.0 28.1 23.6 92 1.0 NE 13 17 7 9 1011.1 1011.0 1.4
26/11:25am 25.3 29.2 24.3 94 0.7 NE 11 13 6 7 1011.0 1010.9 1.4
26/11:04am 25.3 29.5 24.1 93 0.8 N 9 13 5 7 1011.1 1011.0 1.0
26/11:00am 25.1 29.2 23.9 93 0.8 N 9 11 5 6 1011.1 1011.0 0.2
26/10:58am 25.1 29.1 23.7 92 1.0 N 9 11 5 6 1011.1 1011.0 0.2
26/10:55am 25.2 29.6 23.8 92 1.0 N 7 11 4 6 1011.1 1011.0 0.2
26/10:37am 25.6 30.3 24.0 91 1.1 NNE 6 13 3 7 1011.1 1011.0 0.2
26/10:30am 25.6 31.0 23.8 90 1.2 ENE 2 6 1 3 1011.2 1011.1 0.0
26/10:01am 25.4 29.4 23.8 91 1.1 ESE 9 13 5 7 1011.2 1011.1 0.0
26/10:00am 25.6 29.9 24.2 92 1.0 ESE 9 13 5 7 1011.2 1011.1 0.0
26/09:47am 25.5 29.2 23.9 91 1.1 SE 11 13 6 7 1011.1 1011.0 0.0
26/09:30am 25.7 30.0 24.3 92 1.0 SSE 9 13 5 7 1011.0 1010.9 0.0
26/09:05am 25.9 30.1 24.7 93 0.8 S 11 15 6 8 1010.9 1010.8 0.0
26/09:00am 25.7 30.1 24.5 93 0.8 S 9 13 5 7 1010.9 1010.8 27.2
26/08:30am 25.2 28.8 24.3 95 0.6 SSW 13 15 7 8 1010.8 1010.7 27.2
26/08:00am 25.1 29.0 24.2 95 0.6 SW 11 13 6 7 1010.5 1010.4 27.0
26/07:30am 24.7 28.7 23.8 95 0.6 S 9 11 5 6 1010.4 1010.3 27.0
26/07:00am 24.3 28.7 23.4 95 0.6 S 6 7 3 4 1010.1 1010.0 27.0
26/06:31am 24.7 29.2 24.0 96 0.5 SSE 7 9 4 5 1009.8 1009.7 26.8
26/06:30am 24.7 29.2 24.0 96 0.5 SSE 7 11 4 6 1009.8 1009.7 26.8
26/06:12am 24.8 29.4 24.1 96 0.5 SSW 7 9 4 5 1009.4 1009.3 25.8
26/06:00am 24.8 29.0 24.1 96 0.5 SW 9 9 5 5 1009.3 1009.2 25.2
26/05:44am 24.7 29.8 24.0 96 0.5 SE 4 11 2 6 1009.0 1008.9 24.2
26/05:30am 24.7 29.2 24.0 96 0.5 S 7 11 4 6 1008.8 1008.7 24.0
26/05:00am 24.7 29.2 24.0 96 0.5 S 7 9 4 5 1008.4 1008.3 24.0
26/04:59am 24.7 29.2 24.0 96 0.5 S 7 9 4 5 1008.4 1008.3 24.0
26/04:30am 24.7 29.2 24.0 96 0.5 SW 7 9 4 5 1008.5 1008.4 24.0
26/04:00am 24.7 29.8 24.0 96 0.5 SW 4 7 2 4 1008.5 1008.4 24.0
26/03:30am 24.8 29.4 24.1 96 0.5 SW 7 9 4 5 1008.3 1008.2 24.0
26/03:28am 24.7 29.2 24.0 96 0.5 SW 7 7 4 4 1008.3 1008.2 24.0
26/03:06am 24.8 29.6 24.1 96 0.5 SSW 6 9 3 5 1008.3 1008.2 24.0
26/03:00am 24.8 29.6 24.1 96 0.5 SSW 6 9 3 5 1008.3 1008.2 24.0
26/02:44am 24.8 29.9 24.1 96 0.5 SW 4 7 2 4 1008.5 1008.4 23.8
26/02:43am 24.8 29.9 24.1 96 0.5 SW 4 7 2 4 1008.5 1008.4 23.8
26/02:30am 24.7 29.2 24.0 96 0.5 SW 7 9 4 5 1008.5 1008.4 23.8
26/02:00am 24.8 29.0 24.1 96 0.5 SSW 9 11 5 6 1008.7 1008.6 23.8
26/01:57am 24.8 29.0 24.1 96 0.5 SSW 9 11 5 6 1008.7 1008.6 23.8
26/01:37am 24.8 29.4 24.1 96 0.5 SSE 7 9 4 5 1008.9 1008.8 23.6
26/01:30am 24.8 29.0 24.1 96 0.5 SSE 9 11 5 6 1008.9 1008.8 23.4
26/01:09am 24.8 28.6 24.1 96 0.5 SSE 11 15 6 8 1009.0 1008.9 23.4
26/01:00am 24.8 29.0 24.1 96 0.5 SSE 9 13 5 7 1009.1 1009.0 23.2
26/12:30am 24.9 28.8 24.2 96 0.5 S 11 15 6 8 1009.4 1009.3 23.2
26/12:00am 24.9 29.0 24.0 95 0.6 S 9 15 5 8 1009.9 1009.8 23.2
 
Date/Time
EST
Temp
°C
App
Temp
°C
Dew
Point
°C
Rel
Hum
%
Delta-T
°C
Wind Press
QNH
hPa
Press
MSL
hPa
Rain since
9am
mm
Dir  Spd
km/h
Gust
km/h
Spd
kts
Gust
kts
25/11:30pm 24.9 28.7 24.0 95 0.6 SSE 11 13 6 7 1010.1 1010.0 23.2
25/11:00pm 25.0 28.4 24.1 95 0.6 S 13 19 7 10 1010.4 1010.3 23.2
25/10:42pm 25.1 28.7 24.4 96 0.5 S 13 17 7 9 1010.4 1010.3 23.2
25/10:30pm 25.1 28.7 24.4 96 0.5 S 13 15 7 8 1010.4 1010.3 23.2
25/10:00pm 24.9 28.8 24.2 96 0.5 SSW 11 13 6 7 1010.4 1010.3 22.8
25/09:30pm 24.9 28.8 24.2 96 0.5 SSW 11 13 6 7 1010.2 1010.1 22.8
25/09:00pm 24.8 28.6 24.1 96 0.5 S 11 15 6 8 1010.0 1009.9 22.6
25/08:30pm 24.8 28.9 23.9 95 0.6 SSW 9 13 5 7 1009.8 1009.7 22.2
25/08:00pm 24.9 29.7 24.2 96 0.5 SSW 6 9 3 5 1009.5 1009.4 22.0
25/07:32pm 25.0 29.3 24.3 96 0.5 SSW 9 11 5 6 1009.3 1009.2 22.0
25/07:30pm 24.9 29.2 24.2 96 0.5 SSW 9 11 5 6 1009.3 1009.2 22.0
25/07:07pm 25.0 29.3 24.3 96 0.5 SSW 9 13 5 7 1009.1 1009.0 21.6
25/07:00pm 24.9 29.2 24.2 96 0.5 SW 9 13 5 7 1009.0 1008.9 21.6
25/06:30pm 25.2 29.9 24.3 95 0.6 SSW 7 9 4 5 1008.5 1008.4 21.2
25/06:00pm 25.3 29.7 24.4 95 0.6 SW 9 13 5 7 1008.4 1008.3 20.4
25/05:30pm 25.8 31.0 24.8 94 0.7 SW 6 7 3 4 1008.1 1008.0 19.2
25/05:00pm 25.7 30.5 24.5 93 0.8 S 7 11 4 6 1007.9 1007.8 18.0
25/04:30pm 25.8 30.1 24.2 91 1.1 SSW 9 11 5 6 1007.7 1007.6 17.8
25/04:18pm 26.1 30.9 24.1 89 1.4 SSE 6 7 3 4 1007.9 1007.8 17.8
25/04:00pm 26.6 31.7 24.6 89 1.4 NW 6 9 3 5 1007.9 1007.8 17.6
25/03:57pm 26.8 31.9 25.0 90 1.3 N 7 15 4 8 1007.9 1007.8 17.6
25/03:44pm 27.0 30.9 24.8 88 1.5 E 13 20 7 11 1007.7 1007.6 17.2
25/03:30pm 27.6 32.7 25.6 89 1.4 ESE 9 13 5 7 1007.6 1007.5 17.0
25/03:16pm 27.6 32.3 25.6 89 1.4 E 11 17 6 9 1007.7 1007.6 16.0
25/03:05pm 27.6 31.1 25.4 88 1.5 ENE 17 26 9 14 1007.8 1007.7 15.8
25/03:00pm 28.1 31.6 25.5 86 1.8 E 17 26 9 14 1007.7 1007.6 15.6
25/02:30pm 30.0 34.1 25.7 78 3.0 ESE 15 20 8 11 1007.9 1007.8 15.6
25/02:19pm 29.3 32.7 24.6 76 3.3 ESE 15 20 8 11 1007.9 1007.8 15.6
25/02:07pm 29.5 33.5 25.0 77 3.2 ESE 13 20 7 11 1008.1 1008.0 15.6
25/02:00pm 29.6 33.6 25.1 77 3.2 ESE 13 20 7 11 1008.2 1008.1 15.6
25/01:30pm 29.3 34.2 25.3 79 2.8 SE 9 13 5 7 1008.9 1008.8 15.6
25/01:17pm 28.3 33.1 25.1 83 2.2 ESE 9 13 5 7 1009.1 1009.0 15.4
25/01:00pm 27.7 32.5 25.1 86 1.8 SE 9 13 5 7 1009.5 1009.4 15.4
25/12:51pm 27.3 31.9 25.3 89 1.4 ESE 11 15 6 8 1009.6 1009.5 15.4
25/12:30pm 26.4 31.3 24.6 90 1.2 ESE 7 11 4 6 1009.9 1009.8 15.4
25/12:00pm 25.5 29.7 24.1 92 1.0 ESE 9 11 5 6 1010.4 1010.3 15.4
25/11:44am 25.1 29.1 23.7 92 1.0 ESE 9 11 5 6 1010.7 1010.6 15.4
25/11:30am 25.5 29.1 24.3 93 0.8 ESE 13 17 7 9 1010.8 1010.7 15.2
25/11:26am 25.7 29.6 24.3 92 1.0 ESE 11 17 6 9 1010.9 1010.8 15.0
25/11:04am 26.9 30.9 24.4 86 1.7 NE 11 19 6 10 1011.2 1011.1 2.8
25/11:00am 28.1 32.4 24.9 83 2.2 ENE 11 17 6 9 1011.3 1011.2 0.0
25/10:58am 28.1 32.3 24.7 82 2.4 E 11 17 6 9 1011.2 1011.1 0.0
25/10:38am 28.5 31.7 24.9 81 2.5 ESE 17 22 9 12 1011.0 1010.9 0.0
25/10:30am 28.4 31.0 24.6 80 2.6 ESE 19 22 10 12 1011.1 1011.0 0.0
25/10:16am 28.4 31.8 25.2 83 2.2 ESE 17 20 9 11 1011.0 1010.9 0.0
25/10:00am 28.8 32.4 24.4 77 3.1 ESE 13 17 7 9 1011.0 1010.9 0.0
25/09:44am 28.2 32.8 24.8 82 2.4 E 9 15 5 8 1011.0 1010.9 0.0
25/09:30am 27.8 31.6 24.0 80 2.6 E 11 15 6 8 1011.0 1010.9 0.0
25/09:27am 28.1 32.3 24.7 82 2.4 ESE 11 15 6 8 1010.9 1010.8 0.0
25/09:00am 27.6 31.5 24.2 82 2.4 E 11 15 6 8 1010.8 1010.7 5.0
25/08:30am 28.0 32.9 25.2 85 2.0 E 9 13 5 7 1010.8 1010.7 5.0
25/08:00am 27.2 32.4 24.8 87 1.7 E 6 9 3 5 1010.7 1010.6 5.0
25/07:30am 26.3 31.6 24.9 92 1.0 SE 6 9 3 5 1010.5 1010.4 5.0
25/07:00am 25.4 31.5 24.5 95 0.6 CALM 0 0 0 0 1010.2 1010.1 5.0
25/06:30am 24.9 30.7 24.0 95 0.6 CALM 0 0 0 0 1010.0 1009.9 5.0
25/06:00am 24.7 30.4 23.8 95 0.6 CALM 0 0 0 0 1009.8 1009.7 5.0
25/05:30am 24.8 30.5 23.8 94 0.7 CALM 0 0 0 0 1009.6 1009.5 5.0
25/05:00am 24.8 30.5 23.8 94 0.7 CALM 0 0 0 0 1009.4 1009.3 4.8
25/04:30am 24.7 29.6 23.7 94 0.7 WSW 4 6 2 3 1009.2 1009.1 4.8
25/04:00am 24.8 29.3 23.9 95 0.6 W 7 11 4 6 1009.1 1009.0 4.8
25/03:30am 25.0 28.8 24.0 94 0.7 WNW 11 13 6 7 1009.2 1009.1 4.0
25/03:00am 25.5 29.6 24.5 94 0.7 WNW 11 15 6 8 1009.3 1009.2 3.6
25/02:30am 26.0 31.4 25.1 95 0.6 NW 6 9 3 5 1009.6 1009.5 2.8
25/02:00am 26.2 31.5 25.2 94 0.7 SSW 7 7 4 4 1009.8 1009.7 2.6
25/01:30am 26.2 31.6 25.2 94 0.7 SW 6 7 3 4 1010.2 1010.1 2.0
25/01:00am 26.2 31.6 25.2 94 0.7 SSW 6 7 3 4 1010.3 1010.2 2.0
25/12:30am 26.3 31.5 25.1 93 0.8 SW 7 9 4 5 1010.6 1010.5 2.0
25/12:00am 26.5 31.8 25.3 93 0.8 SSW 7 9 4 5 1010.8 1010.7 2.0
 
Date/Time
EST
Temp
°C
App
Temp
°C
Dew
Point
°C
Rel
Hum
%
Delta-T
°C
Wind Press
QNH
hPa
Press
MSL
hPa
Rain since
9am
mm
Dir  Spd
km/h
Gust
km/h
Spd
kts
Gust
kts
24/11:30pm 26.7 33.1 24.9 90 1.3 CALM 0 0 0 0 1010.9 1010.8 1.6
24/11:00pm 26.8 33.4 25.2 91 1.1 CALM 0 0 0 0 1011.1 1011.0 1.6
24/10:30pm 27.2 33.8 25.2 89 1.4 CALM 0 0 0 0 1011.3 1011.2 1.6
24/10:00pm 27.2 33.5 24.8 87 1.7 CALM 0 0 0 0 1011.1 1011.0 1.6
24/09:30pm 27.0 33.1 24.5 86 1.7 CALM 0 0 0 0 1010.9 1010.8 1.6
24/09:00pm 27.4 33.3 24.7 85 1.9 N 2 6 1 3 1010.6 1010.5 1.6
24/08:30pm 27.5 32.6 24.6 84 2.0 N 6 7 3 4 1010.0 1009.9 1.6
24/08:00pm 27.4 32.2 24.5 84 2.0 N 7 9 4 5 1009.5 1009.4 1.6
24/07:30pm 27.7 32.4 24.3 82 2.4 N 7 11 4 6 1009.3 1009.2 1.6
24/07:00pm 28.1 32.2 23.9 78 2.9 NNE 9 13 5 7 1008.8 1008.7 1.6
24/06:30pm 28.8 32.5 23.9 75 3.4 NNE 11 15 6 8 1008.7 1008.6 1.6
24/06:00pm 29.3 31.9 23.3 70 4.1 NNE 15 20 8 11 1008.1 1008.0 1.6
24/05:30pm 29.9 31.9 22.3 63 5.2 NNE 15 19 8 10 1007.8 1007.7 1.6
24/05:00pm 30.6 32.6 22.2 61 5.7 NNE 15 19 8 10 1007.7 1007.6 1.6
24/04:30pm 31.2 33.2 23.0 61 5.6 NNE 17 22 9 12 1007.5 1007.4 1.6
24/04:00pm 31.6 33.5 23.4 61 5.7 NNE 19 26 10 14 1007.4 1007.3 1.6
24/03:30pm 30.8 33.6 23.7 66 4.9 NNE 15 22 8 12 1007.6 1007.5 1.6
24/03:00pm 31.8 34.7 22.5 58 6.4 NE 11 15 6 8 1007.8 1007.7 1.6
24/02:30pm 31.8 34.7 23.1 60 6.0 NE 13 20 7 11 1008.0 1007.9 1.6
24/02:00pm 29.7 35.3 26.3 82 2.4 ENE 9 13 5 7 1008.4 1008.3 1.6
24/01:36pm 27.8 33.1 25.2 86 1.8 NE 7 15 4 8 1009.0 1008.9 1.6
24/01:30pm 27.9 32.8 25.9 89 1.4 N 11 15 6 8 1008.9 1008.8 1.6
24/01:23pm 27.6 32.1 25.8 90 1.3 N 13 17 7 9 1008.9 1008.8 1.2
24/01:00pm 27.4 29.9 24.7 85 1.9 NNW 20 30 11 16 1009.7 1009.6 0.0
24/12:30pm 32.4 34.7 23.4 59 6.2 ENE 17 22 9 12 1009.8 1009.7 0.0
24/12:00pm 33.6 36.5 23.9 57 6.8 ENE 15 26 8 14 1010.4 1010.3 0.0
24/11:30am 32.8 36.3 22.9 56 6.8 E 9 24 5 13 1010.9 1010.8 0.0
24/11:00am 33.7 37.9 23.4 55 7.2 N 7 17 4 9 1011.3 1011.2 0.0
24/10:30am 33.1 36.7 23.7 57 6.5 E 11 17 6 9 1011.5 1011.4 0.0
24/10:00am 31.6 34.9 23.2 61 5.8 NE 11 17 6 9 1011.3 1011.2 0.0
24/09:30am 31.4 35.5 23.2 61 5.7 E 7 15 4 8 1011.5 1011.4 0.0
24/09:00am 29.8 35.0 23.5 69 4.3 E 2 7 1 4 1011.6 1011.5 1.0
24/08:30am 29.4 35.2 24.0 72 3.7 CALM 0 6 0 3 1011.6 1011.5 1.0
24/08:00am 28.8 35.1 24.8 79 2.8 CALM 0 2 0 1 1011.4 1011.3 1.0
24/07:30am 26.7 33.0 24.7 89 1.4 CALM 0 0 0 0 1011.3 1011.2 1.0
24/07:00am 26.1 32.0 24.1 89 1.4 CALM 0 0 0 0 1011.0 1010.9 1.0
24/06:30am 25.4 31.5 24.4 94 0.7 CALM 0 0 0 0 1010.7 1010.6 1.0
24/06:00am 24.7 30.4 23.7 94 0.7 CALM 0 0 0 0 1010.0 1009.9 1.0
24/05:30am 24.7 30.4 23.8 95 0.6 CALM 0 0 0 0 1009.8 1009.7 1.0
24/05:00am 24.7 30.4 23.8 95 0.6 CALM 0 0 0 0 1009.7 1009.6 1.0
24/04:30am 24.8 30.6 23.9 95 0.6 CALM 0 0 0 0 1009.3 1009.2 1.0
24/04:00am 24.8 30.6 23.9 95 0.6 CALM 0 2 0 1 1009.4 1009.3 1.0
24/03:30am 24.8 30.2 23.9 95 0.6 WNW 2 6 1 3 1009.5 1009.4 1.0
24/03:00am 25.0 29.8 24.1 95 0.6 WNW 6 7 3 4 1009.6 1009.5 1.0
24/02:30am 25.0 29.7 24.0 94 0.7 WSW 6 7 3 4 1009.8 1009.7 1.0
24/02:00am 25.2 29.9 24.0 93 0.8 SSW 6 7 3 4 1010.0 1009.9 1.0
24/01:30am 25.5 31.4 24.1 92 1.0 CALM 0 0 0 0 1010.4 1010.3 1.0
24/01:00am 25.7 31.0 24.3 92 1.0 S 4 6 2 3 1010.6 1010.5 1.0
24/12:30am 25.9 32.0 24.5 92 1.0 CALM 0 0 0 0 1011.3 1011.2 1.0
24/12:00am 26.1 32.2 24.5 91 1.1 CALM 0 0 0 0 1011.5 1011.4 1.0
 
Date/Time
EST
Temp
°C
App
Temp
°C
Dew
Point
°C
Rel
Hum
%
Delta-T
°C
Wind Press
QNH
hPa
Press
MSL
hPa
Rain since
9am
mm
Dir  Spd
km/h
Gust
km/h
Spd
kts
Gust
kts
23/11:30pm 26.0 31.8 24.6 92 1.0 S 2 6 1 3 1011.7 1011.6 1.0
23/11:00pm 26.1 32.2 24.5 91 1.1 CALM 0 0 0 0 1011.8 1011.7 1.0
23/10:30pm 26.2 32.3 24.4 90 1.2 CALM 0 6 0 3 1011.9 1011.8 1.0
23/10:00pm 26.1 31.5 24.5 91 1.1 WNW 4 6 2 3 1011.8 1011.7 1.0
23/09:30pm 26.3 31.7 24.5 90 1.2 NW 4 6 2 3 1011.3 1011.2 1.0
23/09:00pm 26.4 32.4 24.2 88 1.5 CALM 0 0 0 0 1010.7 1010.6 1.0
23/08:30pm 26.5 31.2 24.3 88 1.5 SW 7 7 4 4 1010.7 1010.6 1.0
23/08:00pm 26.7 31.6 24.4 87 1.6 WSW 6 7 3 4 1010.4 1010.3 1.0
23/07:30pm 27.3 33.4 24.4 84 2.0 CALM 0 0 0 0 1009.9 1009.8 1.0
23/07:00pm 27.4 32.4 23.8 81 2.5 N 4 7 2 4 1009.6 1009.5 1.0
23/06:30pm 27.8 32.1 23.6 78 2.9 NNW 7 11 4 6 1009.1 1009.0 1.0
23/06:00pm 28.7 32.6 23.6 74 3.5 NW 9 13 5 7 1008.7 1008.6 1.0
23/05:30pm 30.0 33.4 23.4 67 4.5 NNW 11 15 6 8 1008.2 1008.1 1.0
23/05:00pm 30.8 34.8 24.4 68 4.5 NE 11 15 6 8 1008.0 1007.9 1.0
23/04:30pm 30.5 34.9 24.4 70 4.3 NE 9 13 5 7 1008.1 1008.0 0.8
23/04:00pm 29.5 34.1 24.1 72 3.8 NE 7 11 4 6 1008.1 1008.0 0.8
23/03:30pm 28.9 33.7 24.2 76 3.3 SE 6 9 3 5 1008.3 1008.2 0.8
23/03:00pm 28.2 32.9 24.0 78 2.9 ENE 6 13 3 7 1008.5 1008.4 0.8
23/02:30pm 27.3 31.2 24.2 83 2.1 E 11 13 6 7 1008.7 1008.6 0.6
23/02:00pm 27.2 29.2 23.9 82 2.3 ENE 20 26 11 14 1008.9 1008.8 0.4
23/01:30pm 31.3 34.5 23.7 64 5.3 ESE 13 20 7 11 1009.0 1008.9 0.0

Other formats

Comma delimited format used in spreadsheet applications
http://www.bom.gov.au/fwo/IDQ60801/IDQ60801.94365.axf

JavaScript Object Notation format (JSON) in row-major order
http://www.bom.gov.au/fwo/IDQ60801/IDQ60801.94365.json

Data quality

Most of these data are generated automatically and are frequently updated. Quality checks on data are not normally performed. It is possible for incorrect values to appear. Refer to information at About Latest Weather Observations and please check the disclaimer before using these data.